sensor_id;sensor_type;location;lat;lon;timestamp;temperature;humidity
13798;DHT22;6970;51.340;3.240;2023-04-25T00:00:54;9.20;99.90
13798;DHT22;6970;51.340;3.240;2023-04-25T00:03:21;9.20;99.90
13798;DHT22;6970;51.340;3.240;2023-04-25T00:05:50;9.20;99.90
13798;DHT22;6970;51.340;3.240;2023-04-25T00:08:18;9.10;99.90
13798;DHT22;6970;51.340;3.240;2023-04-25T00:10:45;9.10;99.90
13798;DHT22;6970;51.340;3.240;2023-04-25T00:13:13;9.00;99.90
13798;DHT22;6970;51.340;3.240;2023-04-25T00:15:44;8.90;99.90
13798;DHT22;6970;51.340;3.240;2023-04-25T00:18:16;8.80;99.90
13798;DHT22;6970;51.340;3.240;2023-04-25T00:20:46;8.80;99.90
13798;DHT22;6970;51.340;3.240;2023-04-25T00:23:15;8.80;99.90
13798;DHT22;6970;51.340;3.240;2023-04-25T00:25:49;8.80;99.90
13798;DHT22;6970;51.340;3.240;2023-04-25T00:28:18;8.80;99.90
13798;DHT22;6970;51.340;3.240;2023-04-25T00:30:49;8.80;99.90
13798;DHT22;6970;51.340;3.240;2023-04-25T00:33:19;8.80;99.90
13798;DHT22;6970;51.340;3.240;2023-04-25T00:35:47;8.80;99.90
13798;DHT22;6970;51.340;3.240;2023-04-25T00:38:14;8.80;99.90
13798;DHT22;6970;51.340;3.240;2023-04-25T00:40:43;8.80;99.90
13798;DHT22;6970;51.340;3.240;2023-04-25T00:43:10;8.80;99.90
13798;DHT22;6970;51.340;3.240;2023-04-25T00:45:38;8.70;99.90
13798;DHT22;6970;51.340;3.240;2023-04-25T00:48:09;8.60;99.90
13798;DHT22;6970;51.340;3.240;2023-04-25T00:50:38;8.50;99.90
13798;DHT22;6970;51.340;3.240;2023-04-25T00:53:05;8.50;99.90
13798;DHT22;6970;51.340;3.240;2023-04-25T00:55:52;8.40;99.90
13798;DHT22;6970;51.340;3.240;2023-04-25T00:58:21;8.40;99.90
13798;DHT22;6970;51.340;3.240;2023-04-25T01:00:50;8.40;99.90
13798;DHT22;6970;51.340;3.240;2023-04-25T01:03:19;8.50;99.90
13798;DHT22;6970;51.340;3.240;2023-04-25T01:05:50;8.50;99.90
13798;DHT22;6970;51.340;3.240;2023-04-25T01:08:21;8.50;99.90
13798;DHT22;6970;51.340;3.240;2023-04-25T01:10:53;8.50;99.90
13798;DHT22;6970;51.340;3.240;2023-04-25T01:13:21;8.50;99.90
13798;DHT22;6970;51.340;3.240;2023-04-25T01:15:51;8.60;99.90
13798;DHT22;6970;51.340;3.240;2023-04-25T01:18:21;8.50;99.90
13798;DHT22;6970;51.340;3.240;2023-04-25T01:20:51;8.60;99.90
13798;DHT22;6970;51.340;3.240;2023-04-25T01:23:22;8.60;99.90
13798;DHT22;6970;51.340;3.240;2023-04-25T01:25:50;8.60;99.90
13798;DHT22;6970;51.340;3.240;2023-04-25T01:28:20;8.50;99.90
13798;DHT22;6970;51.340;3.240;2023-04-25T01:30:50;8.50;99.90
13798;DHT22;6970;51.340;3.240;2023-04-25T01:33:19;8.50;99.90
13798;DHT22;6970;51.340;3.240;2023-04-25T01:35:51;8.50;99.90
13798;DHT22;6970;51.340;3.240;2023-04-25T01:38:19;8.50;99.90
13798;DHT22;6970;51.340;3.240;2023-04-25T01:40:50;8.50;99.90
13798;DHT22;6970;51.340;3.240;2023-04-25T01:43:20;8.50;99.90
13798;DHT22;6970;51.340;3.240;2023-04-25T01:45:50;8.50;99.90
13798;DHT22;6970;51.340;3.240;2023-04-25T01:48:18;8.50;99.90
13798;DHT22;6970;51.340;3.240;2023-04-25T01:50:51;8.50;99.90
13798;DHT22;6970;51.340;3.240;2023-04-25T01:53:21;8.50;99.90
13798;DHT22;6970;51.340;3.240;2023-04-25T01:55:51;8.50;99.90
13798;DHT22;6970;51.340;3.240;2023-04-25T01:58:20;8.50;99.90
13798;DHT22;6970;51.340;3.240;2023-04-25T02:00:47;8.50;99.90
13798;DHT22;6970;51.340;3.240;2023-04-25T02:03:15;8.40;99.90
13798;DHT22;6970;51.340;3.240;2023-04-25T02:05:42;8.40;99.90
13798;DHT22;6970;51.340;3.240;2023-04-25T02:08:09;8.40;99.90
13798;DHT22;6970;51.340;3.240;2023-04-25T02:10:37;8.40;99.90
13798;DHT22;6970;51.340;3.240;2023-04-25T02:13:06;8.30;99.90
13798;DHT22;6970;51.340;3.240;2023-04-25T02:15:35;8.30;99.90
13798;DHT22;6970;51.340;3.240;2023-04-25T02:18:05;8.30;99.90
13798;DHT22;6970;51.340;3.240;2023-04-25T02:20:33;8.30;99.90
13798;DHT22;6970;51.340;3.240;2023-04-25T02:23:03;8.30;99.90
13798;DHT22;6970;51.340;3.240;2023-04-25T02:25:31;8.30;99.90
13798;DHT22;6970;51.340;3.240;2023-04-25T02:27:59;8.30;99.90
13798;DHT22;6970;51.340;3.240;2023-04-25T02:30:27;8.30;99.90
13798;DHT22;6970;51.340;3.240;2023-04-25T02:32:57;8.30;99.90
13798;DHT22;6970;51.340;3.240;2023-04-25T02:35:28;8.30;99.90
13798;DHT22;6970;51.340;3.240;2023-04-25T02:37:55;8.30;99.90
13798;DHT22;6970;51.340;3.240;2023-04-25T02:40:25;8.30;99.90
13798;DHT22;6970;51.340;3.240;2023-04-25T02:42:52;8.30;99.90
13798;DHT22;6970;51.340;3.240;2023-04-25T02:45:22;8.30;99.90
13798;DHT22;6970;51.340;3.240;2023-04-25T02:47:52;8.30;99.90
13798;DHT22;6970;51.340;3.240;2023-04-25T02:50:20;8.30;99.90
13798;DHT22;6970;51.340;3.240;2023-04-25T02:52:50;8.30;99.90
13798;DHT22;6970;51.340;3.240;2023-04-25T02:55:19;8.30;99.90
13798;DHT22;6970;51.340;3.240;2023-04-25T02:57:49;8.30;99.90
13798;DHT22;6970;51.340;3.240;2023-04-25T03:00:18;8.20;99.90
13798;DHT22;6970;51.340;3.240;2023-04-25T03:02:45;8.10;99.90
13798;DHT22;6970;51.340;3.240;2023-04-25T03:05:13;8.10;99.90
13798;DHT22;6970;51.340;3.240;2023-04-25T03:07:40;8.00;99.90
13798;DHT22;6970;51.340;3.240;2023-04-25T03:10:07;7.90;99.90
13798;DHT22;6970;51.340;3.240;2023-04-25T03:12:38;7.80;99.90
13798;DHT22;6970;51.340;3.240;2023-04-25T03:15:05;7.80;99.90
13798;DHT22;6970;51.340;3.240;2023-04-25T03:17:32;7.70;99.90
13798;DHT22;6970;51.340;3.240;2023-04-25T03:20:01;7.70;99.90
13798;DHT22;6970;51.340;3.240;2023-04-25T03:22:28;7.70;99.90
13798;DHT22;6970;51.340;3.240;2023-04-25T03:24:55;7.70;99.90
13798;DHT22;6970;51.340;3.240;2023-04-25T03:27:23;7.80;99.90
13798;DHT22;6970;51.340;3.240;2023-04-25T03:29:52;7.80;99.90
13798;DHT22;6970;51.340;3.240;2023-04-25T03:32:19;7.90;99.90
13798;DHT22;6970;51.340;3.240;2023-04-25T03:34:49;7.90;99.90
13798;DHT22;6970;51.340;3.240;2023-04-25T03:37:19;7.90;99.90
13798;DHT22;6970;51.340;3.240;2023-04-25T03:39:48;8.00;99.90
13798;DHT22;6970;51.340;3.240;2023-04-25T03:42:16;8.00;99.90
13798;DHT22;6970;51.340;3.240;2023-04-25T03:44:45;8.00;99.90
13798;DHT22;6970;51.340;3.240;2023-04-25T03:47:18;8.10;99.90
13798;DHT22;6970;51.340;3.240;2023-04-25T03:49:47;8.10;99.90
13798;DHT22;6970;51.340;3.240;2023-04-25T03:52:16;8.10;99.90
13798;DHT22;6970;51.340;3.240;2023-04-25T03:54:46;8.20;99.90
13798;DHT22;6970;51.340;3.240;2023-04-25T03:57:13;8.20;99.90
13798;DHT22;6970;51.340;3.240;2023-04-25T03:59:43;8.20;99.90
13798;DHT22;6970;51.340;3.240;2023-04-25T04:02:14;8.20;99.90
13798;DHT22;6970;51.340;3.240;2023-04-25T04:04:43;8.20;99.90
13798;DHT22;6970;51.340;3.240;2023-04-25T04:07:15;8.20;99.90
13798;DHT22;6970;51.340;3.240;2023-04-25T04:09:42;8.20;99.90
13798;DHT22;6970;51.340;3.240;2023-04-25T04:12:09;8.20;99.90
13798;DHT22;6970;51.340;3.240;2023-04-25T04:14:39;8.20;99.90
13798;DHT22;6970;51.340;3.240;2023-04-25T04:17:10;8.20;99.90
13798;DHT22;6970;51.340;3.240;2023-04-25T04:19:40;8.20;99.90
13798;DHT22;6970;51.340;3.240;2023-04-25T04:22:23;8.20;99.90
13798;DHT22;6970;51.340;3.240;2023-04-25T04:24:51;8.20;99.90
13798;DHT22;6970;51.340;3.240;2023-04-25T04:27:22;8.20;99.90
13798;DHT22;6970;51.340;3.240;2023-04-25T04:29:49;8.20;99.90
13798;DHT22;6970;51.340;3.240;2023-04-25T04:32:19;8.20;99.90
13798;DHT22;6970;51.340;3.240;2023-04-25T04:34:46;8.20;99.90
13798;DHT22;6970;51.340;3.240;2023-04-25T04:37:17;8.30;99.90
13798;DHT22;6970;51.340;3.240;2023-04-25T04:39:46;8.20;99.90
13798;DHT22;6970;51.340;3.240;2023-04-25T04:42:15;8.20;99.90
13798;DHT22;6970;51.340;3.240;2023-04-25T04:44:43;8.10;99.90
13798;DHT22;6970;51.340;3.240;2023-04-25T04:47:14;8.00;99.90
13798;DHT22;6970;51.340;3.240;2023-04-25T04:49:41;7.90;99.90
13798;DHT22;6970;51.340;3.240;2023-04-25T04:52:09;7.90;99.90
13798;DHT22;6970;51.340;3.240;2023-04-25T04:54:42;7.80;99.90
13798;DHT22;6970;51.340;3.240;2023-04-25T04:57:09;7.80;99.90
13798;DHT22;6970;51.340;3.240;2023-04-25T04:59:39;7.80;99.90
13798;DHT22;6970;51.340;3.240;2023-04-25T05:02:06;7.80;99.90
13798;DHT22;6970;51.340;3.240;2023-04-25T05:04:36;7.80;99.90
13798;DHT22;6970;51.340;3.240;2023-04-25T05:07:03;7.80;99.90
13798;DHT22;6970;51.340;3.240;2023-04-25T05:09:31;7.90;99.90
13798;DHT22;6970;51.340;3.240;2023-04-25T05:11:59;7.90;99.90
13798;DHT22;6970;51.340;3.240;2023-04-25T05:14:27;7.90;99.90
13798;DHT22;6970;51.340;3.240;2023-04-25T05:16:54;7.90;99.90
13798;DHT22;6970;51.340;3.240;2023-04-25T05:19:22;7.90;99.90
13798;DHT22;6970;51.340;3.240;2023-04-25T05:21:49;7.90;99.90
13798;DHT22;6970;51.340;3.240;2023-04-25T05:24:16;8.00;99.90
13798;DHT22;6970;51.340;3.240;2023-04-25T05:26:44;8.00;99.90
13798;DHT22;6970;51.340;3.240;2023-04-25T05:29:11;8.10;99.90
13798;DHT22;6970;51.340;3.240;2023-04-25T05:31:40;8.10;99.90
13798;DHT22;6970;51.340;3.240;2023-04-25T05:34:07;8.10;99.90
13798;DHT22;6970;51.340;3.240;2023-04-25T05:36:37;8.20;99.90
13798;DHT22;6970;51.340;3.240;2023-04-25T05:39:07;8.20;99.90
13798;DHT22;6970;51.340;3.240;2023-04-25T05:41:38;8.20;99.90
13798;DHT22;6970;51.340;3.240;2023-04-25T05:44:08;8.20;99.90
13798;DHT22;6970;51.340;3.240;2023-04-25T05:46:38;8.30;99.90
13798;DHT22;6970;51.340;3.240;2023-04-25T05:49:12;8.30;99.90
13798;DHT22;6970;51.340;3.240;2023-04-25T05:51:39;8.30;99.90
13798;DHT22;6970;51.340;3.240;2023-04-25T05:54:09;8.30;99.90
13798;DHT22;6970;51.340;3.240;2023-04-25T05:56:39;8.30;99.90
13798;DHT22;6970;51.340;3.240;2023-04-25T05:59:08;8.30;99.90
13798;DHT22;6970;51.340;3.240;2023-04-25T06:01:41;8.40;99.90
13798;DHT22;6970;51.340;3.240;2023-04-25T06:04:10;8.40;99.90
13798;DHT22;6970;51.340;3.240;2023-04-25T06:06:40;8.50;99.90
13798;DHT22;6970;51.340;3.240;2023-04-25T06:09:08;8.60;99.90
13798;DHT22;6970;51.340;3.240;2023-04-25T06:11:38;8.70;99.90
13798;DHT22;6970;51.340;3.240;2023-04-25T06:14:05;8.70;99.90
13798;DHT22;6970;51.340;3.240;2023-04-25T06:16:33;8.90;99.90
13798;DHT22;6970;51.340;3.240;2023-04-25T06:19:02;8.90;99.90
13798;DHT22;6970;51.340;3.240;2023-04-25T06:21:29;9.00;99.90
13798;DHT22;6970;51.340;3.240;2023-04-25T06:23:55;9.00;99.90
13798;DHT22;6970;51.340;3.240;2023-04-25T06:26:25;9.00;99.90
13798;DHT22;6970;51.340;3.240;2023-04-25T06:28:53;9.00;99.90
13798;DHT22;6970;51.340;3.240;2023-04-25T06:31:23;8.90;99.90
13798;DHT22;6970;51.340;3.240;2023-04-25T06:33:53;8.90;99.90
13798;DHT22;6970;51.340;3.240;2023-04-25T06:36:21;8.90;99.90
13798;DHT22;6970;51.340;3.240;2023-04-25T06:38:54;8.90;99.90
13798;DHT22;6970;51.340;3.240;2023-04-25T06:41:21;8.90;99.90
13798;DHT22;6970;51.340;3.240;2023-04-25T06:43:50;8.90;99.90
13798;DHT22;6970;51.340;3.240;2023-04-25T06:46:19;8.90;99.90
13798;DHT22;6970;51.340;3.240;2023-04-25T06:48:50;9.10;99.90
13798;DHT22;6970;51.340;3.240;2023-04-25T06:51:19;9.20;99.90
13798;DHT22;6970;51.340;3.240;2023-04-25T06:53:50;9.40;99.90
13798;DHT22;6970;51.340;3.240;2023-04-25T06:56:19;9.70;99.90
13798;DHT22;6970;51.340;3.240;2023-04-25T06:58:46;9.80;99.90
13798;DHT22;6970;51.340;3.240;2023-04-25T07:01:16;10.00;99.90
13798;DHT22;6970;51.340;3.240;2023-04-25T07:03:43;10.10;99.90
13798;DHT22;6970;51.340;3.240;2023-04-25T07:06:11;10.10;99.90
13798;DHT22;6970;51.340;3.240;2023-04-25T07:08:41;10.20;99.90
13798;DHT22;6970;51.340;3.240;2023-04-25T07:11:08;10.20;99.90
13798;DHT22;6970;51.340;3.240;2023-04-25T07:13:35;10.20;99.90
13798;DHT22;6970;51.340;3.240;2023-04-25T07:16:04;10.10;99.90
13798;DHT22;6970;51.340;3.240;2023-04-25T07:18:32;10.10;99.90
13798;DHT22;6970;51.340;3.240;2023-04-25T07:21:02;10.10;99.90
13798;DHT22;6970;51.340;3.240;2023-04-25T07:23:30;10.20;99.90
13798;DHT22;6970;51.340;3.240;2023-04-25T07:25:58;10.50;99.90
13798;DHT22;6970;51.340;3.240;2023-04-25T07:28:25;10.70;99.90
13798;DHT22;6970;51.340;3.240;2023-04-25T07:30:58;10.90;99.90
13798;DHT22;6970;51.340;3.240;2023-04-25T07:33:27;10.80;99.90
13798;DHT22;6970;51.340;3.240;2023-04-25T07:35:54;10.60;99.90
13798;DHT22;6970;51.340;3.240;2023-04-25T07:38:23;10.40;99.90
13798;DHT22;6970;51.340;3.240;2023-04-25T07:40:50;10.20;99.90
13798;DHT22;6970;51.340;3.240;2023-04-25T07:43:17;10.00;99.90
13798;DHT22;6970;51.340;3.240;2023-04-25T07:45:46;9.80;99.90
13798;DHT22;6970;51.340;3.240;2023-04-25T07:48:18;9.60;99.90
13798;DHT22;6970;51.340;3.240;2023-04-25T07:50:47;9.50;99.90
13798;DHT22;6970;51.340;3.240;2023-04-25T07:53:20;9.50;99.90
13798;DHT22;6970;51.340;3.240;2023-04-25T07:55:48;9.50;99.90
13798;DHT22;6970;51.340;3.240;2023-04-25T07:58:15;9.40;99.90
13798;DHT22;6970;51.340;3.240;2023-04-25T08:00:43;9.40;99.90
13798;DHT22;6970;51.340;3.240;2023-04-25T08:03:10;9.40;99.90
13798;DHT22;6970;51.340;3.240;2023-04-25T08:05:38;9.40;99.90
13798;DHT22;6970;51.340;3.240;2023-04-25T08:08:11;9.40;99.90
13798;DHT22;6970;51.340;3.240;2023-04-25T08:10:41;9.60;99.90
13798;DHT22;6970;51.340;3.240;2023-04-25T08:13:09;9.60;99.90
13798;DHT22;6970;51.340;3.240;2023-04-25T08:15:36;9.70;99.90
13798;DHT22;6970;51.340;3.240;2023-04-25T08:18:04;9.90;99.90
13798;DHT22;6970;51.340;3.240;2023-04-25T08:20:32;10.00;99.90
13798;DHT22;6970;51.340;3.240;2023-04-25T08:22:59;10.30;99.90
13798;DHT22;6970;51.340;3.240;2023-04-25T08:25:27;10.60;99.90
13798;DHT22;6970;51.340;3.240;2023-04-25T08:27:54;10.90;99.90
13798;DHT22;6970;51.340;3.240;2023-04-25T08:30:22;11.20;99.90
13798;DHT22;6970;51.340;3.240;2023-04-25T08:32:49;11.60;99.90
13798;DHT22;6970;51.340;3.240;2023-04-25T08:35:20;11.80;99.90
13798;DHT22;6970;51.340;3.240;2023-04-25T08:37:47;12.20;99.70
13798;DHT22;6970;51.340;3.240;2023-04-25T08:40:15;12.60;99.20
13798;DHT22;6970;51.340;3.240;2023-04-25T08:42:43;12.90;98.90
13798;DHT22;6970;51.340;3.240;2023-04-25T08:45:11;13.00;98.50
13798;DHT22;6970;51.340;3.240;2023-04-25T08:47:38;13.20;98.60
13798;DHT22;6970;51.340;3.240;2023-04-25T08:50:09;13.10;99.00
13798;DHT22;6970;51.340;3.240;2023-04-25T08:52:44;12.70;99.90
13798;DHT22;6970;51.340;3.240;2023-04-25T08:55:13;12.40;99.90
13798;DHT22;6970;51.340;3.240;2023-04-25T08:57:42;12.10;99.90
13798;DHT22;6970;51.340;3.240;2023-04-25T09:00:16;11.90;99.90
13798;DHT22;6970;51.340;3.240;2023-04-25T09:02:43;11.70;99.90
13798;DHT22;6970;51.340;3.240;2023-04-25T09:05:14;11.70;99.90
13798;DHT22;6970;51.340;3.240;2023-04-25T09:07:44;12.00;99.70
13798;DHT22;6970;51.340;3.240;2023-04-25T09:10:14;12.20;98.00
13798;DHT22;6970;51.340;3.240;2023-04-25T09:12:41;12.30;96.80
13798;DHT22;6970;51.340;3.240;2023-04-25T09:15:10;12.50;96.00
13798;DHT22;6970;51.340;3.240;2023-04-25T09:17:44;12.90;96.20
13798;DHT22;6970;51.340;3.240;2023-04-25T09:20:17;13.30;96.80
13798;DHT22;6970;51.340;3.240;2023-04-25T09:22:47;13.70;97.10
13798;DHT22;6970;51.340;3.240;2023-04-25T09:25:17;13.90;96.60
13798;DHT22;6970;51.340;3.240;2023-04-25T09:27:53;14.10;96.00
13798;DHT22;6970;51.340;3.240;2023-04-25T09:30:30;14.40;95.80
13798;DHT22;6970;51.340;3.240;2023-04-25T09:33:07;14.50;95.00
13798;DHT22;6970;51.340;3.240;2023-04-25T09:35:42;14.60;94.40
13798;DHT22;6970;51.340;3.240;2023-04-25T09:38:14;14.70;93.80
13798;DHT22;6970;51.340;3.240;2023-04-25T09:40:45;14.80;93.90
13798;DHT22;6970;51.340;3.240;2023-04-25T09:43:21;14.90;93.60
13798;DHT22;6970;51.340;3.240;2023-04-25T09:45:53;14.90;93.20
13798;DHT22;6970;51.340;3.240;2023-04-25T09:48:27;14.70;93.20
13798;DHT22;6970;51.340;3.240;2023-04-25T09:53:38;14.50;93.60
13798;DHT22;6970;51.340;3.240;2023-04-25T09:56:08;14.40;93.50
13798;DHT22;6970;51.340;3.240;2023-04-25T09:58:37;14.50;93.90
13798;DHT22;6970;51.340;3.240;2023-04-25T10:01:10;14.70;93.70
13798;DHT22;6970;51.340;3.240;2023-04-25T10:03:39;14.90;93.00
13798;DHT22;6970;51.340;3.240;2023-04-25T10:06:12;15.20;92.90
13798;DHT22;6970;51.340;3.240;2023-04-25T10:08:42;15.60;93.10
13798;DHT22;6970;51.340;3.240;2023-04-25T10:11:14;16.00;92.30
13798;DHT22;6970;51.340;3.240;2023-04-25T10:13:45;16.10;91.80
13798;DHT22;6970;51.340;3.240;2023-04-25T10:16:13;16.10;91.70
13798;DHT22;6970;51.340;3.240;2023-04-25T10:18:43;16.30;91.80
13798;DHT22;6970;51.340;3.240;2023-04-25T10:21:13;16.30;91.40
13798;DHT22;6970;51.340;3.240;2023-04-25T10:23:44;16.40;91.70
13798;DHT22;6970;51.340;3.240;2023-04-25T10:26:12;16.50;91.00
13798;DHT22;6970;51.340;3.240;2023-04-25T10:29:00;16.70;90.70
13798;DHT22;6970;51.340;3.240;2023-04-25T10:31:33;16.80;91.00
13798;DHT22;6970;51.340;3.240;2023-04-25T10:34:04;17.00;90.70
13798;DHT22;6970;51.340;3.240;2023-04-25T10:36:35;17.10;90.30
13798;DHT22;6970;51.340;3.240;2023-04-25T10:39:07;17.10;89.50
13798;DHT22;6970;51.340;3.240;2023-04-25T10:41:47;16.80;90.10
13798;DHT22;6970;51.340;3.240;2023-04-25T10:44:16;16.50;91.60
13798;DHT22;6970;51.340;3.240;2023-04-25T10:46:44;16.20;92.50
13798;DHT22;6970;51.340;3.240;2023-04-25T10:49:35;16.10;93.30
13798;DHT22;6970;51.340;3.240;2023-04-25T10:52:18;16.00;93.00
13798;DHT22;6970;51.340;3.240;2023-04-25T10:54:55;16.00;93.10
13798;DHT22;6970;51.340;3.240;2023-04-25T10:57:42;15.90;93.00
13798;DHT22;6970;51.340;3.240;2023-04-25T11:05:34;15.70;92.70
13798;DHT22;6970;51.340;3.240;2023-04-25T11:08:17;15.70;92.40
13798;DHT22;6970;51.340;3.240;2023-04-25T11:10:50;15.80;92.30
13798;DHT22;6970;51.340;3.240;2023-04-25T11:13:20;15.70;92.20
13798;DHT22;6970;51.340;3.240;2023-04-25T11:15:51;15.60;91.40
13798;DHT22;6970;51.340;3.240;2023-04-25T11:18:40;15.60;90.80
13798;DHT22;6970;51.340;3.240;2023-04-25T11:21:07;15.60;91.60
13798;DHT22;6970;51.340;3.240;2023-04-25T11:23:36;15.60;91.60
13798;DHT22;6970;51.340;3.240;2023-04-25T11:26:05;15.70;91.60
13798;DHT22;6970;51.340;3.240;2023-04-25T11:28:35;15.80;90.60
13798;DHT22;6970;51.340;3.240;2023-04-25T11:31:04;15.90;90.10
13798;DHT22;6970;51.340;3.240;2023-04-25T11:33:33;16.00;89.50
13798;DHT22;6970;51.340;3.240;2023-04-25T11:36:00;16.10;88.30
13798;DHT22;6970;51.340;3.240;2023-04-25T11:38:29;16.10;88.50
13798;DHT22;6970;51.340;3.240;2023-04-25T11:41:09;16.20;88.90
13798;DHT22;6970;51.340;3.240;2023-04-25T11:43:39;16.30;88.80
13798;DHT22;6970;51.340;3.240;2023-04-25T11:46:12;16.60;89.70
13798;DHT22;6970;51.340;3.240;2023-04-25T11:48:42;16.80;89.30
13798;DHT22;6970;51.340;3.240;2023-04-25T11:51:09;16.90;89.10
13798;DHT22;6970;51.340;3.240;2023-04-25T11:53:41;17.00;87.90
13798;DHT22;6970;51.340;3.240;2023-04-25T11:56:11;17.10;87.90
13798;DHT22;6970;51.340;3.240;2023-04-25T11:58:58;17.30;87.70
13798;DHT22;6970;51.340;3.240;2023-04-25T12:01:32;17.40;87.50
13798;DHT22;6970;51.340;3.240;2023-04-25T12:04:15;17.60;87.60
13798;DHT22;6970;51.340;3.240;2023-04-25T12:06:48;17.50;85.90
13798;DHT22;6970;51.340;3.240;2023-04-25T12:09:38;17.10;87.10
13798;DHT22;6970;51.340;3.240;2023-04-25T12:12:09;16.70;87.20
13798;DHT22;6970;51.340;3.240;2023-04-25T12:14:36;16.50;88.60
13798;DHT22;6970;51.340;3.240;2023-04-25T12:17:05;16.10;90.20
13798;DHT22;6970;51.340;3.240;2023-04-25T12:19:38;16.00;90.30
13798;DHT22;6970;51.340;3.240;2023-04-25T12:22:25;16.00;90.70
13798;DHT22;6970;51.340;3.240;2023-04-25T12:24:53;15.90;90.40
13798;DHT22;6970;51.340;3.240;2023-04-25T12:27:21;15.70;90.30
13798;DHT22;6970;51.340;3.240;2023-04-25T12:29:57;15.50;91.30
13798;DHT22;6970;51.340;3.240;2023-04-25T12:32:28;15.60;91.30
13798;DHT22;6970;51.340;3.240;2023-04-25T12:34:56;15.60;91.30
13798;DHT22;6970;51.340;3.240;2023-04-25T12:37:26;15.90;91.60
13798;DHT22;6970;51.340;3.240;2023-04-25T12:39:53;16.30;91.50
13798;DHT22;6970;51.340;3.240;2023-04-25T12:42:22;16.50;91.00
13798;DHT22;6970;51.340;3.240;2023-04-25T12:44:50;16.80;90.50
13798;DHT22;6970;51.340;3.240;2023-04-25T12:47:20;16.90;90.30
13798;DHT22;6970;51.340;3.240;2023-04-25T12:49:48;16.70;89.30
13798;DHT22;6970;51.340;3.240;2023-04-25T12:52:21;16.40;90.10
13798;DHT22;6970;51.340;3.240;2023-04-25T12:54:48;16.40;90.70
13798;DHT22;6970;51.340;3.240;2023-04-25T12:57:19;16.40;90.60
13798;DHT22;6970;51.340;3.240;2023-04-25T12:59:46;16.40;91.00
13798;DHT22;6970;51.340;3.240;2023-04-25T13:02:16;16.40;90.80
13798;DHT22;6970;51.340;3.240;2023-04-25T13:04:45;16.50;91.30
13798;DHT22;6970;51.340;3.240;2023-04-25T13:07:13;16.50;91.10
13798;DHT22;6970;51.340;3.240;2023-04-25T13:09:43;16.40;91.10
13798;DHT22;6970;51.340;3.240;2023-04-25T13:12:13;16.50;91.40
13798;DHT22;6970;51.340;3.240;2023-04-25T13:14:44;16.50;91.10
13798;DHT22;6970;51.340;3.240;2023-04-25T13:17:11;16.40;90.90
13798;DHT22;6970;51.340;3.240;2023-04-25T13:19:41;16.50;91.20
13798;DHT22;6970;51.340;3.240;2023-04-25T13:22:08;16.40;91.00
13798;DHT22;6970;51.340;3.240;2023-04-25T13:24:37;16.30;91.30
13798;DHT22;6970;51.340;3.240;2023-04-25T13:27:07;16.30;91.40
13798;DHT22;6970;51.340;3.240;2023-04-25T13:29:35;16.30;91.60
13798;DHT22;6970;51.340;3.240;2023-04-25T13:32:10;16.20;91.50
13798;DHT22;6970;51.340;3.240;2023-04-25T13:34:41;15.90;91.30
13798;DHT22;6970;51.340;3.240;2023-04-25T13:37:10;15.40;91.10
13798;DHT22;6970;51.340;3.240;2023-04-25T13:39:37;14.90;91.70
13798;DHT22;6970;51.340;3.240;2023-04-25T13:42:07;14.70;91.70
13798;DHT22;6970;51.340;3.240;2023-04-25T13:44:34;14.50;91.90
13798;DHT22;6970;51.340;3.240;2023-04-25T13:47:04;14.40;92.30
13798;DHT22;6970;51.340;3.240;2023-04-25T13:49:31;14.30;93.00
13798;DHT22;6970;51.340;3.240;2023-04-25T13:51:58;14.20;92.30
13798;DHT22;6970;51.340;3.240;2023-04-25T13:54:25;14.20;92.80
13798;DHT22;6970;51.340;3.240;2023-04-25T13:56:53;14.30;92.60
13798;DHT22;6970;51.340;3.240;2023-04-25T13:59:25;14.30;92.40
13798;DHT22;6970;51.340;3.240;2023-04-25T14:01:58;14.30;91.90
13798;DHT22;6970;51.340;3.240;2023-04-25T14:04:28;14.20;92.00
13798;DHT22;6970;51.340;3.240;2023-04-25T14:06:57;14.20;92.20
13798;DHT22;6970;51.340;3.240;2023-04-25T14:09:27;14.20;91.70
13798;DHT22;6970;51.340;3.240;2023-04-25T14:11:55;14.10;91.60
13798;DHT22;6970;51.340;3.240;2023-04-25T14:14:26;14.10;91.60
13798;DHT22;6970;51.340;3.240;2023-04-25T14:17:04;14.10;91.20
13798;DHT22;6970;51.340;3.240;2023-04-25T14:19:31;14.00;91.30
13798;DHT22;6970;51.340;3.240;2023-04-25T14:22:01;13.90;90.90
13798;DHT22;6970;51.340;3.240;2023-04-25T14:24:32;13.70;91.00
13798;DHT22;6970;51.340;3.240;2023-04-25T14:27:00;13.60;90.80
13798;DHT22;6970;51.340;3.240;2023-04-25T14:29:27;13.50;91.10
13798;DHT22;6970;51.340;3.240;2023-04-25T14:31:55;13.50;91.60
13798;DHT22;6970;51.340;3.240;2023-04-25T14:34:25;13.40;91.80
13798;DHT22;6970;51.340;3.240;2023-04-25T14:36:53;13.50;91.80
13798;DHT22;6970;51.340;3.240;2023-04-25T14:39:22;13.40;92.10
13798;DHT22;6970;51.340;3.240;2023-04-25T14:41:51;13.40;91.90
13798;DHT22;6970;51.340;3.240;2023-04-25T14:44:18;13.40;92.20
13798;DHT22;6970;51.340;3.240;2023-04-25T14:46:48;13.30;92.50
13798;DHT22;6970;51.340;3.240;2023-04-25T14:49:18;13.20;92.50
13798;DHT22;6970;51.340;3.240;2023-04-25T14:51:46;13.30;92.70
13798;DHT22;6970;51.340;3.240;2023-04-25T14:54:20;13.30;92.90
13798;DHT22;6970;51.340;3.240;2023-04-25T14:56:49;13.40;92.80
13798;DHT22;6970;51.340;3.240;2023-04-25T14:59:17;13.60;92.90
13798;DHT22;6970;51.340;3.240;2023-04-25T15:01:46;13.70;93.30
13798;DHT22;6970;51.340;3.240;2023-04-25T15:04:14;13.90;93.40
13798;DHT22;6970;51.340;3.240;2023-04-25T15:06:44;14.00;93.30
13798;DHT22;6970;51.340;3.240;2023-04-25T15:09:12;13.90;93.40
13798;DHT22;6970;51.340;3.240;2023-04-25T15:11:39;14.00;93.70
13798;DHT22;6970;51.340;3.240;2023-04-25T15:14:07;14.30;93.50
13798;DHT22;6970;51.340;3.240;2023-04-25T15:16:34;14.40;93.30
13798;DHT22;6970;51.340;3.240;2023-04-25T15:19:04;14.30;92.70
13798;DHT22;6970;51.340;3.240;2023-04-25T15:21:32;14.20;92.40
13798;DHT22;6970;51.340;3.240;2023-04-25T15:23:59;14.20;92.60
13798;DHT22;6970;51.340;3.240;2023-04-25T15:26:28;14.10;92.10
13798;DHT22;6970;51.340;3.240;2023-04-25T15:28:56;14.10;91.60
13798;DHT22;6970;51.340;3.240;2023-04-25T15:31:23;14.00;91.00
13798;DHT22;6970;51.340;3.240;2023-04-25T15:33:50;14.00;91.20
13798;DHT22;6970;51.340;3.240;2023-04-25T15:36:19;14.00;91.00
13798;DHT22;6970;51.340;3.240;2023-04-25T15:38:47;14.00;91.10
13798;DHT22;6970;51.340;3.240;2023-04-25T15:41:17;14.00;91.20
13798;DHT22;6970;51.340;3.240;2023-04-25T15:43:47;14.00;91.30
13798;DHT22;6970;51.340;3.240;2023-04-25T15:46:15;13.90;91.30
13798;DHT22;6970;51.340;3.240;2023-04-25T15:48:42;13.70;91.50
13798;DHT22;6970;51.340;3.240;2023-04-25T15:51:12;13.60;91.80
13798;DHT22;6970;51.340;3.240;2023-04-25T15:53:42;13.60;91.70
13798;DHT22;6970;51.340;3.240;2023-04-25T15:56:12;13.70;91.80
13798;DHT22;6970;51.340;3.240;2023-04-25T15:58:39;13.60;91.50
13798;DHT22;6970;51.340;3.240;2023-04-25T16:01:09;13.40;91.60
13798;DHT22;6970;51.340;3.240;2023-04-25T16:03:38;13.40;91.80
13798;DHT22;6970;51.340;3.240;2023-04-25T16:06:08;13.40;91.30
13798;DHT22;6970;51.340;3.240;2023-04-25T16:08:36;13.30;91.50
13798;DHT22;6970;51.340;3.240;2023-04-25T16:11:06;13.30;91.80
13798;DHT22;6970;51.340;3.240;2023-04-25T16:13:37;13.20;91.70
13798;DHT22;6970;51.340;3.240;2023-04-25T16:16:04;13.20;91.90